首页
METAR-TAF:

METAR-TAF

机场 :

Bella Bella, 不列颠哥伦比亚, 加拿大

纬度: 52-11-06N, 经度: 128-09-24W, 海拔: 43米

当前天气观测

该预报发布于19分钟前的17:00 UTC
静风
温度 15°C
湿度 88%
气压 1024 hPa
能見度: 11.3公里
多云层高于1400英尺
阴天层高于1900英尺
小雨

METAR: CBBC 081700Z AUTO 00000KT 7SM -RA BKN014 OVC019 15/13 A3023 RMK SLP238

时间: 10:19 (17:19 UTC)

预报

该预报发布于4小时和36分钟前的12:43 UTC
预报有效从08日的 13点(UTC)到 09日的 01点(UTC)
风速5节,风向南转南东
能見度: 10公里
散云层高于1500英尺
阴天层高于3000英尺
短暂存在
从 08日的 13点(UTC)到 08日的 20点(UTC)
能見度: 8.0公里
多云层高于1500英尺
阴天层高于3000英尺
小雨, 轻雾
从 08日的 2000点(UTC)
风速7节,风向西
能見度: 10公里
散云层高于2000英尺
多云层高于4000英尺

TAF: CBBC 081243Z 0813/0901 16005KT P6SM SCT015 OVC030 TEMPO 0813/0820 5SM -RA BR BKN015 OVC030 FM082000 26007KT P6SM SCT020 BKN040 RMK FCST BASED ON AUTO OBS. NXT FCST BY 081900Z

超过4000个机场的气象观测和天气预报(METAR&TAF报告)。

可查询的气象台以黄色和红色小点在地图上表示。

将鼠标移到小点上方,可查看气象台名称。

然后点击查看天气观测和预报。

如需切换地图:点击带黑十字的绿色按钮放大地图;点击带横线的绿色按钮缩小地图;或者点击绿色箭头查看邻近地区的地图。


METAR-TAF: